Time;durP1;ratioP1;P1;durP2;ratioP2;P2;SDS_P1;SDS_P2;PMS_P1;PMS_P2;Temp;Humidity;BMP_temperature;BMP_pressure;BME280_temperature;BME280_humidity;BME280_pressure;Samples;Min_cycle;Max_cycle;Signal;HPM_P1;HPM_P2
2021/03/16 00:00:10;;;;;;;20.15;12.20;;;;;;;;;;5114355;28;20031;-67
2021/03/16 00:02:36;;;;;;;20.92;12.23;;;;;;;;;;5114434;28;20026;-67
2021/03/16 00:05:03;;;;;;;19.27;12.02;;;;;;;;;;5095491;28;20024;-66
2021/03/16 00:07:29;;;;;;;21.00;12.07;;;;;;;;;;5096321;28;20024;-67
2021/03/16 00:09:55;;;;;;;23.23;12.77;;;;;;;;;;5114809;28;20026;-67
2021/03/16 00:12:21;;;;;;;19.35;12.35;;;;;;;;;;5114498;28;20379;-67
2021/03/16 00:14:47;;;;;;;15.52;10.55;;;;;;;;;;5096262;28;20440;-67
2021/03/16 00:17:13;;;;;;;19.20;11.52;;;;;;;;;;5114467;28;20103;-68
2021/03/16 00:19:40;;;;;;;15.68;10.57;;;;;;;;;;5095610;28;20031;-66
2021/03/16 00:22:06;;;;;;;23.63;10.95;;;;;;;;;;5114404;28;20023;-67
2021/03/16 00:24:32;;;;;;;15.75;9.90;;;;;;;;;;5114390;28;20042;-65
2021/03/16 00:26:58;;;;;;;12.45;8.52;;;;;;;;;;5114312;28;20027;-66
2021/03/16 00:29:25;;;;;;;15.65;9.68;;;;;;;;;;5114278;28;20028;-67
2021/03/16 00:31:51;;;;;;;19.42;9.38;;;;;;;;;;5114554;28;20035;-67
2021/03/16 00:34:17;;;;;;;13.02;8.80;;;;;;;;;;5095342;28;20027;-68
2021/03/16 00:36:43;;;;;;;14.98;9.05;;;;;;;;;;5114225;28;20023;-67
2021/03/16 00:39:09;;;;;;;15.60;9.85;;;;;;;;;;5114413;28;20027;-68
2021/03/16 00:41:35;;;;;;;15.07;9.05;;;;;;;;;;5095609;28;20020;-67
2021/03/16 00:44:02;;;;;;;14.05;9.75;;;;;;;;;;5096158;28;20028;-67
2021/03/16 00:46:28;;;;;;;13.93;8.93;;;;;;;;;;5095950;28;20457;-68
2021/03/16 00:48:54;;;;;;;12.50;8.48;;;;;;;;;;5113266;28;20404;-67
2021/03/16 00:51:20;;;;;;;16.67;9.00;;;;;;;;;;5096066;28;20429;-67
2021/03/16 00:53:47;;;;;;;10.27;8.82;;;;;;;;;;5113400;28;20027;-67
2021/03/16 00:56:13;;;;;;;16.65;9.90;;;;;;;;;;5114034;28;20016;-67
2021/03/16 00:58:39;;;;;;;12.18;8.02;;;;;;;;;;5095765;28;20045;-68
2021/03/16 01:01:06;;;;;;;14.73;9.20;;;;;;;;;;5117358;28;20031;-68
2021/03/16 01:03:32;;;;;;;12.52;8.82;;;;;;;;;;5117995;28;20107;-66
2021/03/16 01:05:58;;;;;;;16.88;9.68;;;;;;;;;;5118110;28;20028;-66
2021/03/16 01:08:25;;;;;;;13.23;9.15;;;;;;;;;;5117303;28;20039;-67
2021/03/16 01:10:52;;;;;;;13.07;8.88;;;;;;;;;;5099978;28;20058;-68
2021/03/16 01:13:19;;;;;;;13.75;9.25;;;;;;;;;;5117638;28;20031;-68
2021/03/16 01:15:45;;;;;;;10.88;7.70;;;;;;;;;;5099310;28;20407;-68
2021/03/16 01:18:11;;;;;;;14.60;7.57;;;;;;;;;;5099484;28;20461;-68
2021/03/16 01:20:38;;;;;;;12.10;8.75;;;;;;;;;;5117767;28;20098;-68
2021/03/16 01:23:04;;;;;;;15.17;11.23;;;;;;;;;;5117420;28;20027;-68
2021/03/16 01:25:31;;;;;;;18.23;9.45;;;;;;;;;;5117794;28;20032;-68
2021/03/16 01:27:57;;;;;;;12.83;8.97;;;;;;;;;;5117993;28;20065;-67
2021/03/16 01:30:24;;;;;;;14.48;9.13;;;;;;;;;;5117346;28;20035;-67
2021/03/16 01:32:50;;;;;;;12.48;8.50;;;;;;;;;;5117186;28;20039;-65
2021/03/16 01:35:17;;;;;;;12.13;8.10;;;;;;;;;;5117215;28;20152;-70
2021/03/16 01:37:43;;;;;;;11.93;7.88;;;;;;;;;;5116785;28;20024;-68
2021/03/16 01:40:17;;;;;;;12.80;8.20;;;;;;;;;;5117148;28;20049;-67
2021/03/16 01:42:44;;;;;;;14.80;8.85;;;;;;;;;;5116544;28;20090;-68
2021/03/16 01:45:15;;;;;;;11.27;7.90;;;;;;;;;;5099087;28;20054;-67
2021/03/16 01:47:44;;;;;;;14.00;7.45;;;;;;;;;;5099309;28;20085;-68
2021/03/16 01:50:12;;;;;;;11.45;8.00;;;;;;;;;;5116914;28;20023;-67
2021/03/16 01:52:38;;;;;;;12.35;8.35;;;;;;;;;;5098876;28;20469;-67
2021/03/16 01:55:05;;;;;;;14.43;9.00;;;;;;;;;;5117155;28;20499;-68
2021/03/16 01:57:33;;;;;;;14.02;7.78;;;;;;;;;;5116716;28;20076;-67
2021/03/16 01:59:59;;;;;;;13.15;8.23;;;;;;;;;;5098555;28;20028;-67
2021/03/16 02:02:25;;;;;;;14.27;8.63;;;;;;;;;;5116982;28;20019;-68
2021/03/16 02:04:52;;;;;;;13.75;9.18;;;;;;;;;;5116937;28;20061;-67
2021/03/16 02:07:21;;;;;;;13.10;9.23;;;;;;;;;;5116646;28;20024;-68
2021/03/16 02:09:53;;;;;;;12.88;8.93;;;;;;;;;;5096307;28;20024;-70
2021/03/16 02:12:22;;;;;;;13.40;9.13;;;;;;;;;;5096109;28;20481;-67
2021/03/16 02:14:54;;;;;;;16.80;8.10;;;;;;;;;;5096843;28;20049;-68
2021/03/16 02:17:34;;;;;;;13.85;8.93;;;;;;;;;;5096635;28;20024;-69
2021/03/16 02:20:07;;;;;;;13.95;9.55;;;;;;;;;;5095953;28;20036;-68
2021/03/16 02:22:35;;;;;;;11.75;8.20;;;;;;;;;;5078096;28;20028;-68
2021/03/16 02:25:12;;;;;;;17.27;8.95;;;;;;;;;;5095828;28;20043;-69
2021/03/16 02:27:41;;;;;;;13.68;8.52;;;;;;;;;;5096095;28;20044;-68
2021/03/16 02:30:08;;;;;;;14.80;9.07;;;;;;;;;;5077644;28;20085;-69
2021/03/16 02:32:35;;;;;;;14.20;9.13;;;;;;;;;;5116417;27;20028;-69
2021/03/16 02:35:04;;;;;;;15.02;9.50;;;;;;;;;;5098098;28;20032;-69
2021/03/16 02:37:33;;;;;;;16.92;10.13;;;;;;;;;;5115963;28;20028;-69
2021/03/16 02:40:00;;;;;;;14.27;8.88;;;;;;;;;;5098083;28;20024;-69
2021/03/16 02:42:27;;;;;;;14.65;9.52;;;;;;;;;;5116493;28;20020;-69
2021/03/16 02:44:54;;;;;;;12.90;8.77;;;;;;;;;;5097688;28;20111;-69
2021/03/16 02:47:21;;;;;;;13.90;9.30;;;;;;;;;;5097612;28;20459;-69
2021/03/16 02:49:48;;;;;;;11.50;9.48;;;;;;;;;;5115909;28;20043;-69
2021/03/16 02:52:16;;;;;;;17.27;10.68;;;;;;;;;;5115756;28;20081;-68
2021/03/16 02:54:42;;;;;;;12.45;8.15;;;;;;;;;;5115960;28;20073;-68
2021/03/16 02:57:11;;;;;;;12.18;9.18;;;;;;;;;;5116701;28;20043;-66
2021/03/16 02:59:37;;;;;;;13.30;8.63;;;;;;;;;;5115785;28;20024;-67
2021/03/16 03:02:04;;;;;;;20.10;9.52;;;;;;;;;;5115237;28;20065;-67
2021/03/16 03:04:30;;;;;;;13.40;9.27;;;;;;;;;;5097527;28;20019;-68
2021/03/16 03:06:59;;;;;;;14.67;8.10;;;;;;;;;;5115456;28;20065;-67
2021/03/16 03:09:25;;;;;;;13.40;8.15;;;;;;;;;;5115516;28;20428;-66
2021/03/16 03:11:51;;;;;;;12.75;9.20;;;;;;;;;;5115624;28;20027;-68
2021/03/16 03:14:17;;;;;;;12.80;9.60;;;;;;;;;;5115261;28;20027;-68
2021/03/16 03:16:44;;;;;;;12.95;8.13;;;;;;;;;;5098090;28;20020;-67
2021/03/16 03:19:10;;;;;;;18.42;9.43;;;;;;;;;;5115413;28;20377;-68
2021/03/16 03:21:43;;;;;;;14.43;8.35;;;;;;;;;;5114706;28;20057;-67
2021/03/16 03:24:11;;;;;;;11.40;7.97;;;;;;;;;;5115280;28;20024;-67
2021/03/16 03:26:46;;;;;;;12.45;8.45;;;;;;;;;;5115631;28;20034;-67
2021/03/16 03:29:13;;;;;;;16.52;8.70;;;;;;;;;;5114932;28;20033;-67
2021/03/16 03:31:41;;;;;;;14.13;7.97;;;;;;;;;;5114854;28;20031;-67
2021/03/16 03:34:08;;;;;;;14.60;7.68;;;;;;;;;;5114749;28;20358;-67
2021/03/16 03:36:38;;;;;;;14.68;8.50;;;;;;;;;;5114859;28;20020;-68
2021/03/16 03:39:05;;;;;;;12.77;7.85;;;;;;;;;;5114510;28;20088;-67
2021/03/16 03:41:33;;;;;;;13.65;8.13;;;;;;;;;;5115122;28;20027;-67
2021/03/16 03:43:59;;;;;;;;;;;;;;;;;;5114917;28;20441;-66
2021/03/16 03:46:26;;;;;;;12.00;7.97;;;;;;;;;;5114966;28;20002;-68
2021/03/16 03:48:52;;;;;;;16.15;8.30;;;;;;;;;;5095955;28;20131;-67
2021/03/16 03:51:20;;;;;;;12.77;6.60;;;;;;;;;;5115054;28;20421;-67
2021/03/16 03:53:47;;;;;;;10.50;7.70;;;;;;;;;;5096606;28;20252;-67
2021/03/16 03:56:13;;;;;;;12.90;7.95;;;;;;;;;;5114579;28;20520;-67
2021/03/16 03:58:40;;;;;;;13.52;7.85;;;;;;;;;;5096622;28;20495;-67
2021/03/16 04:01:07;;;;;;;12.75;7.70;;;;;;;;;;5114301;28;20059;-66
2021/03/16 04:03:34;;;;;;;10.18;7.50;;;;;;;;;;5114245;28;20507;-67
2021/03/16 04:06:00;;;;;;;10.82;6.22;;;;;;;;;;5114921;28;20026;-67
2021/03/16 04:08:27;;;;;;;16.20;8.00;;;;;;;;;;5114961;28;20028;-67
2021/03/16 04:10:53;;;;;;;14.73;7.05;;;;;;;;;;5114287;28;20020;-68
2021/03/16 04:13:21;;;;;;;9.98;7.35;;;;;;;;;;5114249;28;20432;-68
2021/03/16 04:15:48;;;;;;;14.30;7.72;;;;;;;;;;5114282;28;20373;-68
2021/03/16 04:18:14;;;;;;;13.15;6.95;;;;;;;;;;5114341;28;20020;-68
2021/03/16 04:20:40;;;;;;;10.43;7.25;;;;;;;;;;5114149;28;20020;-69
2021/03/16 04:23:07;;;;;;;12.93;7.23;;;;;;;;;;5114449;28;20107;-68
2021/03/16 04:25:33;;;;;;;10.65;6.88;;;;;;;;;;5113767;28;20046;-68
2021/03/16 04:27:59;;;;;;;16.17;8.35;;;;;;;;;;5114172;28;20434;-66
2021/03/16 04:30:25;;;;;;;10.05;7.35;;;;;;;;;;5095792;28;20024;-69
2021/03/16 04:32:51;;;;;;;13.13;7.80;;;;;;;;;;5113744;28;20023;-68
2021/03/16 04:35:17;;;;;;;16.42;8.32;;;;;;;;;;5113918;28;20380;-69
2021/03/16 04:37:44;;;;;;;14.20;8.43;;;;;;;;;;5114129;28;20016;-68
2021/03/16 04:40:10;;;;;;;14.15;7.78;;;;;;;;;;5095861;28;20062;-68
2021/03/16 04:42:36;;;;;;;12.65;8.88;;;;;;;;;;5108819;28;20050;-66
2021/03/16 04:45:03;;;;;;;15.85;9.95;;;;;;;;;;5084355;28;20024;-69
2021/03/16 04:47:29;;;;;;;24.63;15.68;;;;;;;;;;5100629;28;20354;-68
2021/03/16 04:49:55;;;;;;;23.77;12.65;;;;;;;;;;5105320;28;20496;-65
2021/03/16 04:52:21;;;;;;;23.27;14.27;;;;;;;;;;5102387;28;20066;-67
2021/03/16 04:54:47;;;;;;;41.60;20.45;;;;;;;;;;5077107;28;20023;-68
2021/03/16 04:57:14;;;;;;;27.20;14.50;;;;;;;;;;5099376;28;20016;-69
2021/03/16 04:59:40;;;;;;;30.10;16.20;;;;;;;;;;5098778;28;20027;-67
2021/03/16 05:02:06;;;;;;;13.80;9.70;;;;;;;;;;5094126;28;20380;-66
2021/03/16 05:04:32;;;;;;;30.80;15.10;;;;;;;;;;5112633;28;20386;-68
2021/03/16 05:06:58;;;;;;;32.22;15.98;;;;;;;;;;5113126;28;20011;-68
2021/03/16 05:09:24;;;;;;;29.35;16.15;;;;;;;;;;5095119;28;20031;-67
2021/03/16 05:11:51;;;;;;;35.70;18.23;;;;;;;;;;5113360;28;20020;-66
2021/03/16 05:14:17;;;;;;;33.88;18.85;;;;;;;;;;5113019;28;20066;-65
2021/03/16 05:16:43;;;;;;;28.65;16.00;;;;;;;;;;5095316;28;20081;-64
2021/03/16 05:19:09;;;;;;;23.85;12.48;;;;;;;;;;5113500;28;20034;-67
2021/03/16 05:21:35;;;;;;;23.10;10.32;;;;;;;;;;5113250;28;20055;-66
2021/03/16 05:24:01;;;;;;;16.65;10.18;;;;;;;;;;5113936;28;20055;-68
2021/03/16 05:26:27;;;;;;;16.60;8.30;;;;;;;;;;5113459;28;20114;-65
2021/03/16 05:28:53;;;;;;;16.48;9.68;;;;;;;;;;5113133;28;20032;-67
2021/03/16 05:31:20;;;;;;;15.23;8.80;;;;;;;;;;5113704;28;20072;-68
2021/03/16 05:33:46;;;;;;;25.23;14.77;;;;;;;;;;5113733;28;20461;-67
2021/03/16 05:36:12;;;;;;;19.65;11.27;;;;;;;;;;5113219;28;20031;-67
2021/03/16 05:38:38;;;;;;;21.05;10.73;;;;;;;;;;5113324;28;20031;-66
2021/03/16 05:41:04;;;;;;;19.88;10.38;;;;;;;;;;5113445;28;20027;-66
2021/03/16 05:43:31;;;;;;;19.27;10.98;;;;;;;;;;5113660;28;20024;-67
2021/03/16 05:45:57;;;;;;;14.45;9.93;;;;;;;;;;5115714;28;20065;-66
2021/03/16 05:48:24;;;;;;;18.35;11.18;;;;;;;;;;5116924;28;20046;-66
2021/03/16 05:50:54;;;;;;;20.40;12.13;;;;;;;;;;5117596;28;20098;-66
2021/03/16 05:53:20;;;;;;;17.48;11.00;;;;;;;;;;5117166;28;20358;-67
2021/03/16 05:55:46;;;;;;;17.05;9.98;;;;;;;;;;5098650;28;20114;-67
2021/03/16 05:58:12;;;;;;;17.70;10.82;;;;;;;;;;5117044;28;20409;-68
2021/03/16 06:00:39;;;;;;;17.13;10.23;;;;;;;;;;5116791;28;20089;-67
2021/03/16 06:03:05;;;;;;;15.13;9.85;;;;;;;;;;5116704;28;20055;-66
2021/03/16 06:05:31;;;;;;;13.88;9.60;;;;;;;;;;5117057;27;20027;-66
2021/03/16 06:07:57;;;;;;;17.13;8.88;;;;;;;;;;5116839;28;20031;-67
2021/03/16 06:10:24;;;;;;;15.15;9.55;;;;;;;;;;5116335;28;20088;-69
2021/03/16 06:12:50;;;;;;;11.65;8.18;;;;;;;;;;5098507;28;20016;-65
2021/03/16 06:15:17;;;;;;;15.38;8.68;;;;;;;;;;5116780;28;20020;-66
2021/03/16 06:17:44;;;;;;;17.90;10.13;;;;;;;;;;5098043;28;20020;-66
2021/03/16 06:20:11;;;;;;;14.32;9.20;;;;;;;;;;5098223;28;20072;-68
2021/03/16 06:22:37;;;;;;;14.43;8.63;;;;;;;;;;5098353;28;20019;-65
2021/03/16 06:25:04;;;;;;;10.93;8.65;;;;;;;;;;5116027;28;20377;-66
2021/03/16 06:27:30;;;;;;;14.55;9.70;;;;;;;;;;5098266;28;20026;-67
2021/03/16 06:29:56;;;;;;;14.65;9.43;;;;;;;;;;5116170;28;20374;-70
2021/03/16 06:32:22;;;;;;;13.45;9.75;;;;;;;;;;5116479;28;20020;-65
2021/03/16 06:34:58;;;;;;;15.65;9.43;;;;;;;;;;5116287;28;20023;-63
2021/03/16 06:37:24;;;;;;;14.10;9.68;;;;;;;;;;5115872;28;20477;-63
2021/03/16 06:39:54;;;;;;;16.95;11.07;;;;;;;;;;5116016;28;20035;-66
2021/03/16 06:42:25;;;;;;;19.50;11.48;;;;;;;;;;5116323;28;20027;-65
2021/03/16 06:45:07;;;;;;;22.13;10.55;;;;;;;;;;5115613;28;20469;-66
2021/03/16 06:47:43;;;;;;;43.53;13.68;;;;;;;;;;5115984;28;20027;-64
2021/03/16 06:50:12;;;;;;;28.13;11.00;;;;;;;;;;5098456;28;20026;-67
2021/03/16 06:52:38;;;;;;;22.75;10.85;;;;;;;;;;5115753;28;20026;-65
2021/03/16 06:55:11;;;;;;;23.30;13.00;;;;;;;;;;5116024;28;20505;-67
2021/03/16 06:57:37;;;;;;;18.05;11.00;;;;;;;;;;5116182;28;20031;-65
2021/03/16 07:00:07;;;;;;;17.98;11.65;;;;;;;;;;5115305;28;20024;-65
2021/03/16 07:02:33;;;;;;;24.70;10.75;;;;;;;;;;5115834;28;20030;-66
2021/03/16 07:04:59;;;;;;;16.17;11.90;;;;;;;;;;5115642;28;20051;-64
2021/03/16 07:07:28;;;;;;;21.15;13.43;;;;;;;;;;5116118;28;20019;-64
2021/03/16 07:09:58;;;;;;;18.73;11.88;;;;;;;;;;5115358;28;20527;-62
2021/03/16 07:12:27;;;;;;;20.33;12.07;;;;;;;;;;5115149;28;20035;-63
2021/03/16 07:14:55;;;;;;;19.08;11.90;;;;;;;;;;5115134;28;20496;-65
2021/03/16 07:17:21;;;;;;;18.05;11.38;;;;;;;;;;5115311;28;20112;-62
2021/03/16 07:19:48;;;;;;;15.23;10.93;;;;;;;;;;5115129;28;20481;-62
2021/03/16 07:22:20;;;;;;;23.52;15.27;;;;;;;;;;5116059;28;20039;-64
2021/03/16 07:24:47;;;;;;;34.30;18.65;;;;;;;;;;5115752;28;20030;-63
2021/03/16 07:27:13;;;;;;;36.67;18.60;;;;;;;;;;5114810;28;20073;-62
2021/03/16 07:29:48;;;;;;;28.85;16.38;;;;;;;;;;5115214;28;20081;-65
2021/03/16 07:32:14;;;;;;;29.35;14.85;;;;;;;;;;5115869;28;20031;-61
2021/03/16 07:34:41;;;;;;;39.65;19.80;;;;;;;;;;5119379;27;20098;-63
2021/03/16 07:37:07;;;;;;;47.45;22.65;;;;;;;;;;5129032;27;20027;-62
2021/03/16 07:39:34;;;;;;;24.50;15.50;;;;;;;;;;5114798;28;20035;-63
2021/03/16 07:42:00;;;;;;;29.33;16.52;;;;;;;;;;5114560;28;20089;-65
2021/03/16 07:44:26;;;;;;;39.25;21.48;;;;;;;;;;5114348;28;20035;-65
2021/03/16 07:47:01;;;;;;;36.17;21.10;;;;;;;;;;5114649;28;20400;-63
2021/03/16 07:49:31;;;;;;;33.35;19.65;;;;;;;;;;5114925;28;20047;-62
2021/03/16 07:51:57;;;;;;;25.92;15.73;;;;;;;;;;5115049;28;20027;-62
2021/03/16 07:54:31;;;;;;;21.50;15.47;;;;;;;;;;5114192;28;20099;-62
2021/03/16 07:56:58;;;;;;;20.67;12.55;;;;;;;;;;5114770;28;20364;-62
2021/03/16 07:59:32;;;;;;;19.73;13.07;;;;;;;;;;5114380;28;20110;-63
2021/03/16 08:01:59;;;;;;;20.67;13.98;;;;;;;;;;5114197;28;20016;-63
2021/03/16 08:04:38;;;;;;;25.48;16.25;;;;;;;;;;5114941;28;20482;-63
2021/03/16 08:07:07;;;;;;;23.00;16.17;;;;;;;;;;5114789;28;20410;-63
2021/03/16 08:09:47;;;;;;;21.90;13.65;;;;;;;;;;5113144;28;20023;-62
2021/03/16 08:12:24;;;;;;;21.23;14.05;;;;;;;;;;5114599;28;20031;-63
2021/03/16 08:14:50;;;;;;;15.00;11.27;;;;;;;;;;5113878;28;20092;-62
2021/03/16 08:17:30;;;;;;;25.08;13.32;;;;;;;;;;5114208;28;20031;-61
2021/03/16 08:19:56;;;;;;;25.25;15.48;;;;;;;;;;5114298;28;20157;-63
2021/03/16 08:22:23;;;;;;;20.77;14.02;;;;;;;;;;5114018;28;20100;-63
2021/03/16 08:24:52;;;;;;;30.55;17.17;;;;;;;;;;5113977;28;20047;-63
2021/03/16 08:27:19;;;;;;;24.52;15.40;;;;;;;;;;5114333;28;20034;-65
2021/03/16 08:29:49;;;;;;;23.75;15.35;;;;;;;;;;5113539;28;20027;-63
2021/03/16 08:32:16;;;;;;;26.38;15.57;;;;;;;;;;5114896;28;20040;-64
2021/03/16 08:34:43;;;;;;;26.95;15.65;;;;;;;;;;5095618;28;20377;-63
2021/03/16 08:37:24;;;;;;;21.60;13.95;;;;;;;;;;5113694;28;20031;-64
2021/03/16 08:39:51;;;;;;;24.02;14.20;;;;;;;;;;5113763;28;20403;-63
2021/03/16 08:42:21;;;;;;;21.83;14.07;;;;;;;;;;5095392;28;20034;-64
2021/03/16 08:44:47;;;;;;;19.13;12.13;;;;;;;;;;5095359;28;20271;-64
2021/03/16 08:47:15;;;;;;;21.38;12.80;;;;;;;;;;5113752;28;20028;-65
2021/03/16 08:49:41;;;;;;;;;;;;;;;;;;5114186;28;20051;-65
2021/03/16 08:52:21;;;;;;;19.42;13.15;;;;;;;;;;5113975;28;19910;-64
2021/03/16 08:54:48;;;;;;;22.40;12.65;;;;;;;;;;5113692;28;20023;-64
2021/03/16 08:57:20;;;;;;;24.15;13.38;;;;;;;;;;5113734;28;20484;-66
2021/03/16 09:00:00;;;;;;;27.30;16.73;;;;;;;;;;5113427;28;20384;-64
2021/03/16 09:02:28;;;;;;;19.20;13.73;;;;;;;;;;5113581;28;20019;-64
2021/03/16 09:04:54;;;;;;;;;;;;;;;;;;5114061;28;20023;-65
2021/03/16 09:07:23;;;;;;;24.95;14.82;;;;;;;;;;5113628;28;19914;-64
2021/03/16 09:09:50;;;;;;;23.65;11.95;;;;;;;;;;5113455;28;20429;-65
2021/03/16 09:12:26;;;;;;;17.75;11.20;;;;;;;;;;5113501;28;20048;-66
2021/03/16 09:14:52;;;;;;;32.42;16.23;;;;;;;;;;5113922;28;20047;-63
2021/03/16 09:17:18;;;;;;;60.40;25.33;;;;;;;;;;5095389;28;20024;-63
2021/03/16 09:19:45;;;;;;;20.52;13.50;;;;;;;;;;5113268;28;20066;-64
2021/03/16 09:22:14;;;;;;;21.02;14.25;;;;;;;;;;5117886;28;20061;-65
2021/03/16 09:24:43;;;;;;;27.35;14.18;;;;;;;;;;5117756;28;20053;-64
2021/03/16 09:27:09;;;;;;;23.42;13.43;;;;;;;;;;5117654;28;20095;-66
2021/03/16 09:29:37;;;;;;;14.40;10.48;;;;;;;;;;5117231;28;20035;-64
2021/03/16 09:32:05;;;;;;;28.38;15.98;;;;;;;;;;5117424;28;20043;-65
2021/03/16 09:34:31;;;;;;;32.90;17.33;;;;;;;;;;5099252;28;20030;-65
2021/03/16 09:37:03;;;;;;;21.52;12.90;;;;;;;;;;5136673;27;20106;-66
2021/03/16 09:39:29;;;;;;;50.22;23.08;;;;;;;;;;5137320;27;20065;-66
2021/03/16 09:42:00;;;;;;;33.50;21.60;;;;;;;;;;5138126;27;20032;-69
2021/03/16 09:44:29;;;;;;;22.02;13.95;;;;;;;;;;5128037;27;20759;-69
2021/03/16 09:46:55;;;;;;;51.10;24.85;;;;;;;;;;5116416;28;20085;-70
2021/03/16 09:49:28;;;;;;;28.17;16.08;;;;;;;;;;5116917;28;20429;-67
2021/03/16 09:51:54;;;;;;;28.75;15.15;;;;;;;;;;5117089;28;20024;-67
2021/03/16 09:54:20;;;;;;;40.47;17.92;;;;;;;;;;5116937;28;20024;-66
2021/03/16 09:56:51;;;;;;;50.55;23.85;;;;;;;;;;5116794;28;20027;-66
2021/03/16 09:59:17;;;;;;;30.80;16.42;;;;;;;;;;5116988;28;20027;-65
2021/03/16 10:01:44;;;;;;;33.95;17.58;;;;;;;;;;5116612;28;20032;-64
2021/03/16 10:04:11;;;;;;;;;;;;;;;;;;5117632;28;20061;-66
2021/03/16 10:06:38;;;;;;;26.88;15.05;;;;;;;;;;5116499;28;20360;-69
2021/03/16 10:09:17;;;;;;;42.50;16.17;;;;;;;;;;5098241;28;20024;-69
2021/03/16 10:11:47;;;;;;;19.65;11.55;;;;;;;;;;5116755;28;20047;-70
2021/03/16 10:14:28;;;;;;;21.77;14.05;;;;;;;;;;5116095;28;20083;-66
2021/03/16 10:16:55;;;;;;;20.30;11.80;;;;;;;;;;5116691;28;20073;-67
2021/03/16 10:19:21;;;;;;;35.30;18.02;;;;;;;;;;5116519;28;20027;-68
2021/03/16 10:21:48;;;;;;;19.85;13.20;;;;;;;;;;5115834;28;20365;-71
2021/03/16 10:24:14;;;;;;;21.75;11.88;;;;;;;;;;5116705;28;20023;-70
2021/03/16 10:26:40;;;;;;;48.78;20.60;;;;;;;;;;5098135;28;20377;-67
2021/03/16 10:29:13;;;;;;;24.98;13.45;;;;;;;;;;5116078;28;20028;-65
2021/03/16 10:31:39;;;;;;;26.85;16.77;;;;;;;;;;5116243;28;20052;-66
2021/03/16 10:34:06;;;;;;;30.92;16.48;;;;;;;;;;5116092;28;20031;-64
2021/03/16 10:36:35;;;;;;;61.17;26.60;;;;;;;;;;5116047;28;20091;-66
2021/03/16 10:39:02;;;;;;;58.25;27.20;;;;;;;;;;5116021;28;20023;-64
2021/03/16 10:41:28;;;;;;;40.70;21.63;;;;;;;;;;5116264;28;20034;-65
2021/03/16 10:43:54;;;;;;;28.77;15.55;;;;;;;;;;5115786;28;20725;-66
2021/03/16 10:46:20;;;;;;;38.28;20.15;;;;;;;;;;5115645;28;20050;-68
2021/03/16 10:48:46;;;;;;;29.73;16.30;;;;;;;;;;5115437;28;20417;-66
2021/03/16 10:51:12;;;;;;;22.17;14.48;;;;;;;;;;5115481;28;20077;-66
2021/03/16 10:53:39;;;;;;;25.20;16.48;;;;;;;;;;5115565;28;20103;-67
2021/03/16 10:56:05;;;;;;;21.58;15.02;;;;;;;;;;5115584;28;20023;-66
2021/03/16 10:58:31;;;;;;;18.67;12.65;;;;;;;;;;5115677;28;20051;-68
2021/03/16 11:00:58;;;;;;;25.50;13.82;;;;;;;;;;5097589;28;20102;-67
2021/03/16 11:03:24;;;;;;;19.42;12.45;;;;;;;;;;5115232;28;20028;-67
2021/03/16 11:05:50;;;;;;;18.60;12.75;;;;;;;;;;5115120;28;20081;-66
2021/03/16 11:08:16;;;;;;;20.10;13.23;;;;;;;;;;5115342;28;20467;-67
2021/03/16 11:10:43;;;;;;;19.85;11.05;;;;;;;;;;5114956;28;20385;-64
2021/03/16 11:13:09;;;;;;;26.20;15.52;;;;;;;;;;5115606;28;20041;-66
2021/03/16 11:15:35;;;;;;;18.92;12.75;;;;;;;;;;5115239;28;20060;-64
2021/03/16 11:18:01;;;;;;;16.35;13.00;;;;;;;;;;5115132;28;20032;-65
2021/03/16 11:20:28;;;;;;;19.20;13.80;;;;;;;;;;5115386;28;20027;-68
2021/03/16 11:22:54;;;;;;;17.58;10.70;;;;;;;;;;5115081;28;20407;-65
2021/03/16 11:25:20;;;;;;;23.10;14.48;;;;;;;;;;5115047;28;20032;-63
2021/03/16 11:27:46;;;;;;;47.15;22.85;;;;;;;;;;5114899;28;20023;-63
2021/03/16 11:30:12;;;;;;;25.63;13.85;;;;;;;;;;5114927;28;20380;-64
2021/03/16 11:32:38;;;;;;;16.13;11.05;;;;;;;;;;5114783;28;20054;-64
2021/03/16 11:35:05;;;;;;;45.38;23.63;;;;;;;;;;5114273;28;20027;-63
2021/03/16 11:37:31;;;;;;;21.15;12.60;;;;;;;;;;5114250;28;20024;-64
2021/03/16 11:39:57;;;;;;;25.02;14.85;;;;;;;;;;5113121;28;20027;-61
2021/03/16 11:42:23;;;;;;;18.23;12.68;;;;;;;;;;5112973;28;20140;-63
2021/03/16 11:44:49;;;;;;;25.58;16.15;;;;;;;;;;5111886;28;20028;-66
2021/03/16 11:47:17;;;;;;;19.60;14.43;;;;;;;;;;5111638;28;20023;-65
2021/03/16 11:49:43;;;;;;;26.90;14.52;;;;;;;;;;5114047;28;20054;-66
2021/03/16 11:52:09;;;;;;;46.63;19.20;;;;;;;;;;5111976;28;20015;-66
2021/03/16 11:54:36;;;;;;;29.88;16.83;;;;;;;;;;5113053;28;20274;-66
2021/03/16 11:57:02;;;;;;;21.92;13.10;;;;;;;;;;5093312;28;20412;-65
2021/03/16 11:59:28;;;;;;;22.17;12.73;;;;;;;;;;5111132;28;20035;-65
2021/03/16 12:01:54;;;;;;;53.83;24.27;;;;;;;;;;5113219;28;20076;-67
2021/03/16 12:04:20;;;;;;;22.23;11.45;;;;;;;;;;5114160;28;20083;-66
2021/03/16 12:06:46;;;;;;;49.15;24.42;;;;;;;;;;5114261;28;20034;-65
2021/03/16 12:09:13;;;;;;;20.25;11.45;;;;;;;;;;5114537;28;20023;-67
2021/03/16 12:11:39;;;;;;;26.70;15.40;;;;;;;;;;5114215;28;20028;-67
2021/03/16 12:14:06;;;;;;;16.77;12.98;;;;;;;;;;5114173;28;20037;-65
2021/03/16 12:16:32;;;;;;;20.77;13.13;;;;;;;;;;5114123;28;20028;-67
2021/03/16 12:18:58;;;;;;;17.65;12.32;;;;;;;;;;5114134;28;20032;-64
2021/03/16 12:21:24;;;;;;;22.00;12.65;;;;;;;;;;5114111;28;20381;-65
2021/03/16 12:23:51;;;;;;;23.25;12.70;;;;;;;;;;5114019;28;20027;-64
2021/03/16 12:26:17;;;;;;;22.02;13.80;;;;;;;;;;5114203;28;20012;-64
2021/03/16 12:28:43;;;;;;;23.38;14.15;;;;;;;;;;5113399;28;20028;-65
2021/03/16 12:31:09;;;;;;;13.15;9.25;;;;;;;;;;5112371;28;20094;-65
2021/03/16 12:33:35;;;;;;;30.65;13.48;;;;;;;;;;5113435;28;20035;-67
2021/03/16 12:36:01;;;;;;;16.10;10.55;;;;;;;;;;5113882;28;20496;-64
2021/03/16 12:38:28;;;;;;;13.60;9.65;;;;;;;;;;5114072;28;20028;-66
2021/03/16 12:40:54;;;;;;;15.52;9.88;;;;;;;;;;5112879;28;20024;-65
2021/03/16 12:43:21;;;;;;;13.65;9.77;;;;;;;;;;5113823;28;20023;-65
2021/03/16 12:45:47;;;;;;;21.25;11.75;;;;;;;;;;5113242;28;20104;-65
2021/03/16 12:48:13;;;;;;;14.60;10.32;;;;;;;;;;5085450;28;20459;-66
2021/03/16 12:50:39;;;;;;;16.05;11.10;;;;;;;;;;5073431;28;20048;-65
2021/03/16 12:53:06;;;;;;;13.73;10.50;;;;;;;;;;5073224;28;20024;-68
2021/03/16 12:55:32;;;;;;;16.10;10.40;;;;;;;;;;5076128;28;20032;-64
2021/03/16 12:57:59;;;;;;;18.10;10.27;;;;;;;;;;5077491;28;20063;-65
2021/03/16 13:00:25;;;;;;;20.83;13.55;;;;;;;;;;5089902;28;20076;-64
2021/03/16 13:02:51;;;;;;;15.15;10.02;;;;;;;;;;5086954;28;20026;-65
2021/03/16 13:05:17;;;;;;;23.88;17.63;;;;;;;;;;5077105;28;20227;-65
2021/03/16 13:07:44;;;;;;;20.35;9.77;;;;;;;;;;5075230;28;20107;-65
2021/03/16 13:10:10;;;;;;;11.73;8.55;;;;;;;;;;5070688;28;20020;-64
2021/03/16 13:12:36;;;;;;;9.57;7.28;;;;;;;;;;5067949;28;20493;-66
2021/03/16 13:15:02;;;;;;;10.05;8.57;;;;;;;;;;5076072;28;20029;-64
2021/03/16 13:17:29;;;;;;;12.77;8.45;;;;;;;;;;5075532;28;20025;-67
2021/03/16 13:19:55;;;;;;;13.50;8.40;;;;;;;;;;5075852;28;20123;-65
2021/03/16 13:22:21;;;;;;;11.63;7.57;;;;;;;;;;5076046;28;20497;-64
2021/03/16 13:24:47;;;;;;;15.57;8.48;;;;;;;;;;5074335;28;20033;-65
2021/03/16 13:27:14;;;;;;;16.33;8.25;;;;;;;;;;5075517;28;20029;-64
2021/03/16 13:29:40;;;;;;;;;;;;;;;;;;5075300;28;20025;-64
2021/03/16 13:32:08;;;;;;;16.42;8.88;;;;;;;;;;5074965;28;19908;-66
2021/03/16 13:34:35;;;;;;;13.65;7.55;;;;;;;;;;5075392;28;20028;-64
2021/03/16 13:37:01;;;;;;;14.85;9.95;;;;;;;;;;5075357;28;20430;-64
2021/03/16 13:39:27;;;;;;;16.15;9.68;;;;;;;;;;5076620;28;20036;-66
2021/03/16 13:41:54;;;;;;;19.60;9.77;;;;;;;;;;5076208;28;20107;-65
2021/03/16 13:44:20;;;;;;;19.10;11.45;;;;;;;;;;5076371;28;20020;-68
2021/03/16 13:46:46;;;;;;;14.10;9.00;;;;;;;;;;5075338;28;20032;-66
2021/03/16 13:49:12;;;;;;;17.55;8.10;;;;;;;;;;5105707;28;20533;-65
2021/03/16 13:51:38;;;;;;;20.20;10.65;;;;;;;;;;5116854;28;20065;-65
2021/03/16 13:54:04;;;;;;;18.25;11.68;;;;;;;;;;5117067;28;20022;-64
2021/03/16 13:56:30;;;;;;;20.75;11.65;;;;;;;;;;5116772;28;20055;-64
2021/03/16 13:58:57;;;;;;;26.30;15.38;;;;;;;;;;5116845;28;20032;-65
2021/03/16 14:01:23;;;;;;;31.08;13.40;;;;;;;;;;5116484;28;20050;-64
2021/03/16 14:03:49;;;;;;;39.35;17.40;;;;;;;;;;5116632;28;20019;-66
2021/03/16 14:06:15;;;;;;;26.08;15.40;;;;;;;;;;5116062;28;20028;-66
2021/03/16 14:08:41;;;;;;;32.38;16.17;;;;;;;;;;5098930;28;20073;-64
2021/03/16 14:11:07;;;;;;;15.52;9.88;;;;;;;;;;5116759;28;20077;-65
2021/03/16 14:13:33;;;;;;;18.55;8.88;;;;;;;;;;5116378;28;20023;-65
2021/03/16 14:15:59;;;;;;;13.73;7.30;;;;;;;;;;5116720;28;20089;-65
2021/03/16 14:18:26;;;;;;;14.05;8.60;;;;;;;;;;5098424;28;20413;-69
2021/03/16 14:20:52;;;;;;;19.63;10.15;;;;;;;;;;5115644;28;20099;-66
2021/03/16 14:23:18;;;;;;;16.67;9.27;;;;;;;;;;5116594;28;20028;-65